Hume, Virginia
Current Conditions -  °F | °C
As of 6:15 PM on Thursday 20 Nov 2014 (Local Time) from KFRR Reporting Station
Clear Clear  
Wind Chill: 38°   Ceiling: Unl
Heat Index: 43°   Visibility: 10mi
Dew Point: 10°   Wind: 8mph
Humidity: 27%   Direction: 240°WSW
Pressure: 29.97"   Gusts: NA
Location:  38.83°N, 77.99°W
Report Text: KFRR 202315Z AUTO 24007KT 220V280 10SM CLR 06/M12 A2997 RMK AO1
Loading
Personal Weather Stations






























Interactive Weather Map New forecast layout! Learn more

10-Day Weather Forecast

Advertisements
Track Severe Weather on mobile